Andenne, Belgium
Current Conditions -  °F | °C
As of 9:50 PM on Friday 28 Nov 2014 (Local Time) from EBLG Reporting Station
Haze Haze  
Wind Chill: 39°   Ceiling: Unl
Heat Index: 39°   Visibility: 3mi
Dew Point: 36°   Wind: 2mph
Humidity: 87%   Direction: NA
Pressure: 29.8"   Gusts: NA
Location:  50.49°N, 5.1°E
Report Text: EBLG 282050Z VRB02KT 5000 BR NSC 04/02 Q1009 NOSIG
Loading
Personal Weather Stations






























Interactive Weather Map New forecast layout! Learn more

10-Day Weather Forecast

Advertisements
Track Severe Weather on mobile